createdAt,value
2019-06-15T00:00:34.309Z,21.56
2019-06-15T00:01:34.340Z,21.48
2019-06-15T00:02:34.370Z,21.34
2019-06-15T00:03:34.402Z,21.31
2019-06-15T00:04:34.432Z,21.28
2019-06-15T00:05:34.467Z,21.23
2019-06-15T00:06:34.506Z,21.22
2019-06-15T00:07:34.529Z,21.16
2019-06-15T00:08:34.553Z,21.18
2019-06-15T00:09:34.583Z,21.18
2019-06-15T00:10:34.610Z,21.12
2019-06-15T00:11:34.643Z,21.15
2019-06-15T00:12:34.691Z,21.15
2019-06-15T00:13:34.701Z,21.11
2019-06-15T00:14:34.735Z,21.01
2019-06-15T00:15:34.759Z,20.96
2019-06-15T00:16:34.795Z,20.97
2019-06-15T00:17:34.830Z,20.98
2019-06-15T00:18:34.857Z,20.98
2019-06-15T00:19:34.881Z,20.97
2019-06-15T00:20:34.913Z,20.93
2019-06-15T00:21:34.939Z,20.83
2019-06-15T00:22:34.972Z,20.75
2019-06-15T00:23:35.006Z,20.78
2019-06-15T00:24:35.804Z,20.68
2019-06-15T00:25:35.060Z,20.71
2019-06-15T00:26:35.091Z,20.60
2019-06-15T00:27:35.119Z,20.63
2019-06-15T00:28:35.150Z,20.54
2019-06-15T00:29:35.180Z,20.60
2019-06-15T00:30:35.211Z,20.57
2019-06-15T00:31:35.238Z,20.41
2019-06-15T00:32:35.269Z,20.41
2019-06-15T00:33:35.305Z,20.44
2019-06-15T00:34:35.330Z,20.38
2019-06-15T00:35:35.358Z,20.44
2019-06-15T00:36:35.388Z,20.40
2019-06-15T00:37:35.417Z,20.38
2019-06-15T00:38:35.446Z,20.44
2019-06-15T00:39:35.482Z,20.38
2019-06-15T00:40:35.507Z,20.38
2019-06-15T00:41:35.542Z,20.29
2019-06-15T00:42:35.568Z,20.27
2019-06-15T00:43:35.593Z,20.30
2019-06-15T00:44:35.621Z,20.23
2019-06-15T00:45:35.661Z,20.20
2019-06-15T00:46:35.681Z,20.25
2019-06-15T00:47:35.713Z,20.19
2019-06-15T00:48:35.743Z,20.19
2019-06-15T00:49:35.771Z,20.04
2019-06-15T00:50:35.802Z,20.04
2019-06-15T00:51:35.836Z,20.11
2019-06-15T00:52:35.866Z,20.05
2019-06-15T00:53:35.898Z,20.02
2019-06-15T00:54:49.517Z,20.05
2019-06-15T00:55:35.947Z,20.01
2019-06-15T00:56:35.986Z,20.11
2019-06-15T00:57:36.009Z,20.01
2019-06-15T00:58:36.045Z,20.02
2019-06-15T00:59:36.069Z,20.00
2019-06-15T01:00:36.099Z,20.10
2019-06-15T01:01:36.133Z,20.02
2019-06-15T01:02:36.162Z,20.02
2019-06-15T01:03:36.187Z,19.87
2019-06-15T01:04:36.217Z,19.85
2019-06-15T01:05:36.253Z,19.89
2019-06-15T01:06:36.278Z,19.89
2019-06-15T01:07:36.303Z,19.87
2019-06-15T01:08:36.333Z,19.87
2019-06-15T01:09:36.363Z,19.87
2019-06-15T01:10:36.393Z,19.87
2019-06-15T01:11:36.428Z,19.78
2019-06-15T01:12:36.454Z,19.80
2019-06-15T01:13:36.506Z,19.71
2019-06-15T01:14:36.513Z,19.75
2019-06-15T01:15:36.549Z,19.87
2019-06-15T01:16:36.569Z,19.83
2019-06-15T01:17:36.598Z,19.82
2019-06-15T01:18:36.656Z,19.80
2019-06-15T01:19:36.660Z,19.75
2019-06-15T01:20:36.706Z,19.72
2019-06-15T01:21:36.719Z,19.75
2019-06-15T01:22:36.746Z,19.68
2019-06-15T01:23:36.778Z,19.72
2019-06-15T01:24:36.813Z,19.63
2019-06-15T01:25:36.835Z,19.63
2019-06-15T01:26:36.865Z,19.72
2019-06-15T01:27:36.895Z,19.75
2019-06-15T01:28:36.932Z,19.61
2019-06-15T01:29:36.955Z,19.72
2019-06-15T01:30:36.983Z,19.63
2019-06-15T01:31:37.014Z,19.68
2019-06-15T01:32:37.042Z,19.61
2019-06-15T01:33:37.080Z,19.63
2019-06-15T01:34:37.102Z,19.64
2019-06-15T01:35:37.138Z,19.63
2019-06-15T01:36:37.167Z,19.71
2019-06-15T01:37:37.215Z,19.67
2019-06-15T01:38:37.224Z,19.64
2019-06-15T01:39:37.259Z,19.57
2019-06-15T01:40:37.287Z,19.63
2019-06-15T01:41:37.318Z,19.53
2019-06-15T01:42:37.342Z,19.65
2019-06-15T01:43:37.369Z,19.63
2019-06-15T01:44:37.396Z,19.57
2019-06-15T01:45:37.434Z,19.61
2019-06-15T01:46:37.460Z,19.57
2019-06-15T01:47:37.501Z,19.56
2019-06-15T01:48:37.516Z,19.61
2019-06-15T01:49:37.543Z,19.70
2019-06-15T01:50:37.634Z,19.67
2019-06-15T01:51:37.604Z,19.60
2019-06-15T01:52:37.640Z,19.70
2019-06-15T01:53:37.670Z,19.63
2019-06-15T01:54:37.695Z,19.64
2019-06-15T01:55:37.725Z,19.57
2019-06-15T01:56:37.756Z,19.57
2019-06-15T01:57:37.781Z,19.50
2019-06-15T01:58:37.816Z,19.57
2019-06-15T01:59:37.838Z,19.52
2019-06-15T02:00:37.874Z,19.57
2019-06-15T02:01:37.925Z,19.52
2019-06-15T02:02:37.935Z,19.52
2019-06-15T02:03:37.975Z,19.47
2019-06-15T02:04:37.993Z,19.43
2019-06-15T02:05:38.028Z,19.42
2019-06-15T02:06:38.045Z,19.37
2019-06-15T02:07:38.076Z,19.32
2019-06-15T02:08:38.103Z,19.35
2019-06-15T02:09:38.134Z,19.28
2019-06-15T02:10:38.164Z,19.37
2019-06-15T02:11:38.203Z,19.38
2019-06-15T02:12:38.223Z,19.42
2019-06-15T02:13:38.250Z,19.34
2019-06-15T02:14:38.290Z,19.38
2019-06-15T02:15:38.372Z,19.43
2019-06-15T02:16:38.340Z,19.38
2019-06-15T02:17:38.369Z,19.50
2019-06-15T02:18:38.403Z,19.47
2019-06-15T02:19:38.425Z,19.40
2019-06-15T02:20:38.456Z,19.37
2019-06-15T02:21:38.485Z,19.30
2019-06-15T02:22:38.515Z,19.32
2019-06-15T02:23:38.554Z,19.25
2019-06-15T02:24:38.581Z,19.25
2019-06-15T02:25:38.604Z,19.20
2019-06-15T02:26:38.642Z,19.16
2019-06-15T02:27:38.661Z,19.12
2019-06-15T02:28:38.701Z,19.15
2019-06-15T02:29:38.727Z,19.13
2019-06-15T02:30:38.753Z,19.00
2019-06-15T02:31:38.780Z,19.12
2019-06-15T02:32:38.807Z,19.13
2019-06-15T02:33:38.837Z,19.16
2019-06-15T02:34:38.865Z,19.16
2019-06-15T02:35:38.894Z,19.06
2019-06-15T02:36:38.932Z,19.10
2019-06-15T02:37:38.954Z,19.10
2019-06-15T02:38:38.983Z,19.13
2019-06-15T02:39:39.023Z,19.23
2019-06-15T02:40:39.050Z,19.16
2019-06-15T02:41:39.069Z,19.23
2019-06-15T02:42:39.107Z,19.23
2019-06-15T02:43:39.137Z,19.25
2019-06-15T02:44:39.167Z,19.20
2019-06-15T02:45:39.192Z,19.13
2019-06-15T02:46:39.215Z,19.17
2019-06-15T02:47:39.247Z,19.20
2019-06-15T02:48:39.281Z,19.16
2019-06-15T02:49:39.308Z,19.23
2019-06-15T02:50:39.333Z,19.23
2019-06-15T02:51:39.365Z,19.27
2019-06-15T02:52:39.395Z,19.20
2019-06-15T02:53:39.427Z,19.23
2019-06-15T02:54:39.450Z,19.24
2019-06-15T02:55:50.237Z,19.19
2019-06-15T02:56:39.510Z,19.13
2019-06-15T02:57:39.541Z,19.13
2019-06-15T02:58:39.569Z,19.16
2019-06-15T02:59:39.603Z,19.09
2019-06-15T03:00:39.627Z,19.16
2019-06-15T03:01:39.658Z,19.17
2019-06-15T03:02:39.692Z,19.19
2019-06-15T03:03:39.716Z,19.17
2019-06-15T03:04:39.745Z,19.13
2019-06-15T03:05:39.779Z,19.27
2019-06-15T03:06:39.803Z,19.20
2019-06-15T03:07:39.839Z,19.34
2019-06-15T03:08:39.859Z,19.24
2019-06-15T03:09:39.894Z,19.16
2019-06-15T03:10:39.920Z,19.17
2019-06-15T03:11:39.948Z,19.20
2019-06-15T03:12:39.987Z,19.19
2019-06-15T03:13:40.013Z,19.19
2019-06-15T03:14:40.065Z,19.17
2019-06-15T03:15:40.064Z,19.10
2019-06-15T03:16:40.096Z,19.16
2019-06-15T03:17:40.128Z,19.23
2019-06-15T03:18:40.153Z,19.12
2019-06-15T03:19:40.183Z,19.13
2019-06-15T03:20:40.210Z,19.15
2019-06-15T03:21:40.241Z,19.30
2019-06-15T03:22:40.272Z,19.16
2019-06-15T03:23:40.352Z,19.31
2019-06-15T03:24:40.353Z,19.24
2019-06-15T03:25:40.357Z,19.24
2019-06-15T03:26:40.390Z,19.28
2019-06-15T03:27:40.421Z,19.28
2019-06-15T03:28:40.444Z,19.24
2019-06-15T03:29:40.480Z,19.19
2019-06-15T03:30:40.509Z,19.30
2019-06-15T03:31:40.534Z,19.19
2019-06-15T03:32:40.571Z,19.27
2019-06-15T03:33:40.592Z,19.31
2019-06-15T03:34:40.628Z,19.31
2019-06-15T03:35:40.659Z,19.34
2019-06-15T03:36:40.703Z,19.31
2019-06-15T03:37:40.710Z,19.32
2019-06-15T03:38:40.744Z,19.30
2019-06-15T03:39:40.777Z,19.31
2019-06-15T03:40:40.803Z,19.34
2019-06-15T03:41:40.835Z,19.35
2019-06-15T03:42:40.855Z,19.31
2019-06-15T03:43:40.888Z,19.31
2019-06-15T03:44:40.915Z,19.43
2019-06-15T03:45:40.945Z,19.43
2019-06-15T03:46:40.972Z,19.40
2019-06-15T03:47:41.012Z,19.43
2019-06-15T03:48:41.038Z,19.45
2019-06-15T03:49:41.071Z,19.43
2019-06-15T03:50:41.089Z,19.37
2019-06-15T03:51:41.123Z,19.40
2019-06-15T03:52:41.155Z,19.32
2019-06-15T03:53:41.179Z,19.28
2019-06-15T03:54:41.209Z,19.24
2019-06-15T03:55:41.236Z,19.25
2019-06-15T03:56:41.266Z,19.27
2019-06-15T03:57:41.301Z,19.30
2019-06-15T03:58:41.323Z,19.30
2019-06-15T03:59:41.352Z,19.30
2019-06-15T04:00:41.397Z,19.30
2019-06-15T04:01:41.413Z,19.38
2019-06-15T04:02:41.439Z,19.34
2019-06-15T04:03:41.468Z,19.35
2019-06-15T04:04:41.509Z,19.31
2019-06-15T04:05:41.528Z,19.25
2019-06-15T04:06:41.560Z,19.30
2019-06-15T04:07:41.592Z,19.32
2019-06-15T04:08:41.617Z,19.28
2019-06-15T04:09:41.654Z,19.25
2019-06-15T04:10:41.691Z,19.31
2019-06-15T04:11:41.705Z,19.32
2019-06-15T04:12:41.746Z,19.34
2019-06-15T04:13:41.775Z,19.32
2019-06-15T04:14:41.792Z,19.38
2019-06-15T04:15:41.822Z,19.42
2019-06-15T04:16:41.850Z,19.34
2019-06-15T04:17:41.885Z,19.43
2019-06-15T04:18:41.908Z,19.43
2019-06-15T04:19:41.946Z,19.43
2019-06-15T04:20:41.967Z,19.47
2019-06-15T04:21:41.999Z,19.47
2019-06-15T04:22:42.034Z,19.46
2019-06-15T04:23:42.055Z,19.40
2019-06-15T04:24:42.090Z,19.45
2019-06-15T04:25:44.221Z,19.45
2019-06-15T04:26:42.142Z,19.43
2019-06-15T04:27:42.173Z,19.49
2019-06-15T04:28:42.203Z,19.49
2019-06-15T04:29:42.233Z,19.50
2019-06-15T04:30:42.262Z,19.53
2019-06-15T04:31:42.294Z,19.43
2019-06-15T04:32:42.328Z,19.52
2019-06-15T04:33:42.351Z,19.53
2019-06-15T04:34:42.379Z,19.53
2019-06-15T04:35:42.409Z,19.57
2019-06-15T04:36:42.443Z,19.57
2019-06-15T04:37:42.474Z,19.52
2019-06-15T04:38:42.504Z,19.53
2019-06-15T04:39:42.535Z,19.57
2019-06-15T04:40:42.554Z,19.65
2019-06-15T04:41:42.584Z,19.63
2019-06-15T04:42:42.616Z,19.60
2019-06-15T04:43:42.644Z,19.57
2019-06-15T04:44:42.672Z,19.63
2019-06-15T04:45:42.703Z,19.65
2019-06-15T04:46:42.731Z,19.52
2019-06-15T04:47:42.761Z,19.57
2019-06-15T04:48:42.788Z,19.61
2019-06-15T04:49:42.818Z,19.74
2019-06-15T04:50:42.848Z,19.74
2019-06-15T04:51:42.880Z,19.89
2019-06-15T04:52:42.914Z,19.87
2019-06-15T04:53:42.956Z,20.04
2019-06-15T04:54:42.965Z,20.00
2019-06-15T04:55:42.996Z,20.07
2019-06-15T04:56:50.924Z,20.15
2019-06-15T04:57:43.059Z,20.19
2019-06-15T04:58:43.084Z,20.30
2019-06-15T04:59:43.117Z,20.29
2019-06-15T05:00:43.149Z,20.35
2019-06-15T05:01:43.174Z,20.44
2019-06-15T05:02:43.209Z,20.46
2019-06-15T05:03:43.235Z,20.51
2019-06-15T05:04:43.264Z,20.41
2019-06-15T05:05:43.303Z,20.44
2019-06-15T05:06:43.328Z,20.41
2019-06-15T05:07:43.358Z,20.42
2019-06-15T05:08:43.389Z,20.42
2019-06-15T05:09:43.417Z,20.49
2019-06-15T05:10:43.449Z,20.48
2019-06-15T05:11:43.480Z,20.57
2019-06-15T05:12:43.502Z,20.61
2019-06-15T05:13:43.533Z,20.67
2019-06-15T05:14:43.559Z,20.74
2019-06-15T05:15:43.598Z,20.82
2019-06-15T05:16:43.620Z,20.78
2019-06-15T05:17:46.207Z,20.72
2019-06-15T05:18:43.679Z,20.64
2019-06-15T05:19:43.710Z,20.72
2019-06-15T05:20:43.748Z,20.76
2019-06-15T05:21:43.774Z,20.68
2019-06-15T05:22:43.807Z,20.74
2019-06-15T05:23:43.858Z,20.79
2019-06-15T05:24:43.863Z,20.82
2019-06-15T05:25:43.894Z,20.94
2019-06-15T05:26:43.928Z,20.98
2019-06-15T05:27:43.951Z,20.88
2019-06-15T05:28:43.987Z,20.82
2019-06-15T05:29:44.019Z,20.71
2019-06-15T05:30:44.041Z,20.57
2019-06-15T05:31:44.070Z,20.38
2019-06-15T05:32:44.124Z,20.30
2019-06-15T05:33:44.134Z,20.16
2019-06-15T05:34:44.161Z,20.27
2019-06-15T05:35:44.190Z,20.29
2019-06-15T05:36:44.225Z,20.12
2019-06-15T05:37:44.265Z,20.22
2019-06-15T05:38:44.280Z,20.11
2019-06-15T05:39:44.319Z,20.19
2019-06-15T05:40:44.342Z,20.27
2019-06-15T05:41:44.373Z,20.29
2019-06-15T05:42:44.404Z,20.37
2019-06-15T05:43:44.430Z,20.34
2019-06-15T05:44:44.464Z,20.26
2019-06-15T05:45:44.499Z,20.38
2019-06-15T05:46:44.524Z,20.40
2019-06-15T05:47:44.553Z,20.46
2019-06-15T05:48:44.584Z,20.41
2019-06-15T05:49:44.625Z,20.44
2019-06-15T05:50:44.667Z,20.63
2019-06-15T05:51:44.672Z,20.57
2019-06-15T05:52:44.701Z,20.60
2019-06-15T05:53:44.729Z,20.56
2019-06-15T05:54:44.758Z,20.63
2019-06-15T05:55:44.794Z,20.68
2019-06-15T05:56:44.821Z,20.72
2019-06-15T05:57:44.849Z,20.71
2019-06-15T05:58:44.888Z,20.76
2019-06-15T05:59:44.910Z,20.78
2019-06-15T06:00:44.940Z,20.60
2019-06-15T06:01:44.972Z,20.71
2019-06-15T06:02:45.004Z,20.68
2019-06-15T06:03:45.031Z,20.60
2019-06-15T06:04:45.081Z,20.57
2019-06-15T06:05:45.088Z,20.72
2019-06-15T06:06:45.118Z,20.58
2019-06-15T06:07:45.150Z,20.41
2019-06-15T06:08:45.180Z,20.48
2019-06-15T06:09:45.208Z,20.34
2019-06-15T06:10:45.279Z,20.30
2019-06-15T06:11:45.270Z,20.46
2019-06-15T06:12:45.304Z,20.41
2019-06-15T06:13:45.332Z,20.42
2019-06-15T06:14:45.404Z,20.42
2019-06-15T06:15:45.394Z,20.58
2019-06-15T06:16:45.421Z,20.68
2019-06-15T06:17:45.453Z,20.71
2019-06-15T06:18:45.485Z,20.63
2019-06-15T06:19:45.521Z,20.57
2019-06-15T06:20:45.537Z,20.44
2019-06-15T06:21:45.568Z,20.44
2019-06-15T06:22:45.599Z,20.30
2019-06-15T06:23:45.635Z,20.37
2019-06-15T06:24:45.672Z,20.32
2019-06-15T06:25:45.696Z,20.29
2019-06-15T06:26:45.722Z,20.27
2019-06-15T06:27:45.748Z,20.26
2019-06-15T06:28:56.899Z,20.20
2019-06-15T06:29:45.809Z,20.27
2019-06-15T06:30:45.841Z,20.30
2019-06-15T06:31:45.879Z,20.25
2019-06-15T06:32:45.896Z,20.12
2019-06-15T06:33:45.928Z,20.12
2019-06-15T06:34:45.958Z,20.16
2019-06-15T06:35:45.985Z,20.20
2019-06-15T06:36:46.021Z,20.27
2019-06-15T06:37:46.053Z,20.34
2019-06-15T06:38:46.085Z,20.29
2019-06-15T06:39:46.114Z,20.34
2019-06-15T06:40:46.134Z,20.41
2019-06-15T06:41:46.172Z,20.44
2019-06-15T06:42:46.195Z,20.42
2019-06-15T06:43:46.223Z,20.56
2019-06-15T06:44:46.263Z,20.68
2019-06-15T06:45:46.291Z,20.79
2019-06-15T06:46:46.336Z,20.81
2019-06-15T06:47:46.348Z,20.94
2019-06-15T06:48:46.372Z,21.12
2019-06-15T06:49:46.402Z,21.38
2019-06-15T06:50:46.440Z,21.70
2019-06-15T06:51:46.466Z,21.73
2019-06-15T06:52:46.491Z,21.85
2019-06-15T06:53:46.524Z,22.04
2019-06-15T06:54:46.553Z,21.86
2019-06-15T06:55:46.583Z,21.85
2019-06-15T06:56:46.614Z,21.77
2019-06-15T06:57:53.354Z,21.80
2019-06-15T06:58:46.672Z,22.26
2019-06-15T06:59:46.713Z,22.38
2019-06-15T07:00:46.732Z,22.48
2019-06-15T07:01:46.765Z,22.63
2019-06-15T07:02:46.797Z,22.75
2019-06-15T07:03:46.837Z,22.94
2019-06-15T07:04:46.860Z,22.92
2019-06-15T07:05:46.885Z,22.59
2019-06-15T07:06:46.923Z,22.33
2019-06-15T07:07:46.956Z,22.14
2019-06-15T07:08:48.063Z,21.96
2019-06-15T07:09:47.014Z,21.86
2019-06-15T07:10:47.044Z,21.85
2019-06-15T07:11:47.073Z,21.77
2019-06-15T07:12:47.105Z,21.96
2019-06-15T07:13:47.133Z,22.07
2019-06-15T07:14:47.169Z,22.09
2019-06-15T07:15:47.204Z,21.96
2019-06-15T07:16:47.232Z,21.94
2019-06-15T07:17:47.274Z,22.00
2019-06-15T07:18:47.311Z,21.96
2019-06-15T07:19:47.325Z,21.89
2019-06-15T07:20:47.355Z,21.93
2019-06-15T07:21:47.382Z,22.04
2019-06-15T07:22:47.412Z,21.93
2019-06-15T07:23:47.444Z,22.07
2019-06-15T07:24:47.479Z,22.09
2019-06-15T07:25:47.516Z,22.09
2019-06-15T07:26:47.536Z,21.86
2019-06-15T07:27:47.568Z,21.97
2019-06-15T07:28:47.600Z,21.92
2019-06-15T07:29:47.633Z,21.94
2019-06-15T07:30:47.670Z,21.96
2019-06-15T07:31:47.695Z,21.96
2019-06-15T07:32:47.758Z,21.85
2019-06-15T07:33:47.761Z,21.90
2019-06-15T07:34:47.796Z,21.86
2019-06-15T07:35:47.826Z,21.80
2019-06-15T07:36:47.860Z,21.66
2019-06-15T07:37:47.881Z,21.53
2019-06-15T07:38:47.920Z,21.37
2019-06-15T07:39:47.952Z,21.22
2019-06-15T07:40:47.982Z,21.19
2019-06-15T07:41:48.010Z,21.13
2019-06-15T07:42:48.042Z,21.15
2019-06-15T07:43:48.071Z,21.12
2019-06-15T07:44:48.108Z,21.15
2019-06-15T07:45:48.144Z,21.11
2019-06-15T07:46:48.163Z,21.12
2019-06-15T07:47:48.200Z,21.11
2019-06-15T07:48:48.226Z,21.11
2019-06-15T07:49:48.253Z,21.06
2019-06-15T07:50:48.292Z,20.94
2019-06-15T07:51:48.322Z,20.96
2019-06-15T07:52:48.379Z,20.96
2019-06-15T07:53:48.379Z,20.96
2019-06-15T07:54:48.418Z,21.01
2019-06-15T07:55:48.437Z,20.94
2019-06-15T07:56:48.494Z,20.90
2019-06-15T07:57:48.506Z,20.93
2019-06-15T07:58:48.530Z,20.94
2019-06-15T07:59:48.565Z,20.96
2019-06-15T08:00:48.592Z,20.68
2019-06-15T08:01:48.622Z,20.60
2019-06-15T08:02:48.659Z,20.56
2019-06-15T08:03:48.683Z,20.42
2019-06-15T08:04:48.720Z,20.30
2019-06-15T08:05:48.745Z,20.27
2019-06-15T08:06:48.774Z,20.30
2019-06-15T08:07:48.813Z,20.26
2019-06-15T08:08:48.839Z,20.26
2019-06-15T08:09:48.866Z,20.22
2019-06-15T08:10:48.900Z,20.22
2019-06-15T08:11:48.930Z,20.02
2019-06-15T08:12:48.957Z,20.07
2019-06-15T08:13:48.985Z,20.08
2019-06-15T08:14:49.012Z,20.08
2019-06-15T08:15:49.053Z,20.05
2019-06-15T08:16:49.072Z,20.10
2019-06-15T08:17:49.115Z,20.08
2019-06-15T08:18:49.134Z,20.02
2019-06-15T08:19:49.167Z,20.05
2019-06-15T08:20:49.196Z,20.04
2019-06-15T08:21:49.229Z,20.02
2019-06-15T08:22:49.252Z,20.07
2019-06-15T08:23:49.284Z,20.02
2019-06-15T08:24:49.317Z,19.86
2019-06-15T08:25:49.343Z,19.85
2019-06-15T08:26:49.372Z,19.92
2019-06-15T08:27:49.407Z,19.90
2019-06-15T08:28:49.444Z,19.87
2019-06-15T08:29:49.471Z,19.72
2019-06-15T08:30:49.493Z,19.71
2019-06-15T08:31:49.530Z,19.74
2019-06-15T08:32:49.554Z,19.63
2019-06-15T08:33:49.581Z,19.74
2019-06-15T08:34:49.615Z,19.75
2019-06-15T08:35:49.645Z,19.79
2019-06-15T08:36:49.669Z,19.82
2019-06-15T08:37:49.705Z,19.89
2019-06-15T08:38:49.763Z,19.93
2019-06-15T08:39:49.773Z,19.92
2019-06-15T08:40:49.803Z,19.95
2019-06-15T08:41:49.817Z,19.92
2019-06-15T08:42:49.854Z,19.86
2019-06-15T08:43:49.882Z,19.86
2019-06-15T08:44:49.905Z,19.87
2019-06-15T08:45:49.934Z,19.93
2019-06-15T08:46:49.966Z,19.92
2019-06-15T08:47:49.997Z,19.92
2019-06-15T08:48:50.025Z,20.04
2019-06-15T08:49:50.068Z,20.19
2019-06-15T08:50:50.085Z,20.02
2019-06-15T08:51:50.126Z,20.15
2019-06-15T08:52:50.209Z,20.10
2019-06-15T08:53:50.174Z,20.04
2019-06-15T08:54:50.201Z,19.87
2019-06-15T08:55:50.231Z,19.90
2019-06-15T08:56:50.267Z,19.85
2019-06-15T08:57:50.300Z,19.95
2019-06-15T08:58:55.378Z,19.90
2019-06-15T08:59:50.349Z,19.92
2019-06-15T09:00:50.378Z,19.89
2019-06-15T09:01:50.413Z,19.95
2019-06-15T09:02:50.523Z,20.04
2019-06-15T09:03:50.469Z,20.07
2019-06-15T09:04:50.535Z,20.10
2019-06-15T09:05:50.538Z,20.20
2019-06-15T09:06:50.559Z,20.12
2019-06-15T09:07:50.586Z,20.16
2019-06-15T09:08:50.618Z,20.20
2019-06-15T09:09:50.645Z,20.12
2019-06-15T09:10:50.675Z,20.12
2019-06-15T09:11:50.707Z,20.15
2019-06-15T09:12:50.738Z,20.16
2019-06-15T09:13:50.764Z,20.16
2019-06-15T09:14:50.793Z,20.02
2019-06-15T09:15:50.889Z,19.93
2019-06-15T09:16:50.855Z,19.82
2019-06-15T09:17:50.887Z,19.78
2019-06-15T09:18:50.931Z,19.68
2019-06-15T09:19:50.948Z,19.79
2019-06-15T09:20:50.980Z,19.74
2019-06-15T09:21:51.004Z,19.71
2019-06-15T09:22:51.031Z,19.60
2019-06-15T09:23:51.062Z,19.75
2019-06-15T09:24:51.099Z,19.98
2019-06-15T09:25:51.119Z,20.04
2019-06-15T09:26:51.155Z,20.26
2019-06-15T09:27:51.180Z,20.32
2019-06-15T09:28:51.207Z,20.25
2019-06-15T09:29:51.249Z,20.27
2019-06-15T09:30:51.313Z,20.29
2019-06-15T09:31:51.304Z,20.37
2019-06-15T09:32:51.328Z,20.60
2019-06-15T09:33:51.356Z,20.97
2019-06-15T09:34:51.393Z,21.00
2019-06-15T09:35:51.428Z,21.28
2019-06-15T09:36:51.455Z,21.83
2019-06-15T09:37:51.478Z,22.27
2019-06-15T09:38:51.512Z,22.89
2019-06-15T09:39:51.537Z,22.91
2019-06-15T09:40:51.568Z,22.85
2019-06-15T09:41:51.601Z,22.36
2019-06-15T09:42:51.628Z,22.11
2019-06-15T09:43:51.657Z,21.94
2019-06-15T09:44:51.689Z,21.53
2019-06-15T09:45:51.725Z,21.49
2019-06-15T09:46:51.748Z,21.31
2019-06-15T09:47:51.781Z,21.04
2019-06-15T09:48:51.810Z,20.91
2019-06-15T09:49:51.850Z,20.94
2019-06-15T09:50:51.872Z,20.97
2019-06-15T09:51:51.907Z,20.97
2019-06-15T09:52:51.936Z,21.00
2019-06-15T09:53:51.967Z,21.00
2019-06-15T09:54:52.002Z,21.00
2019-06-15T09:55:52.026Z,21.52
2019-06-15T09:56:52.065Z,21.70
2019-06-15T09:57:52.088Z,21.80
2019-06-15T09:58:52.121Z,21.85
2019-06-15T09:59:52.153Z,21.82
2019-06-15T10:00:52.203Z,21.86
2019-06-15T10:01:52.221Z,21.67
2019-06-15T10:02:52.247Z,21.62
2019-06-15T10:03:52.284Z,21.48
2019-06-15T10:04:52.314Z,21.15
2019-06-15T10:05:52.340Z,20.98
2019-06-15T10:06:52.381Z,20.91
2019-06-15T10:07:52.401Z,20.90
2019-06-15T10:08:52.442Z,21.00
2019-06-15T10:09:52.459Z,21.08
2019-06-15T10:10:52.493Z,21.18
2019-06-15T10:11:52.520Z,21.18
2019-06-15T10:12:52.556Z,21.25
2019-06-15T10:13:52.593Z,21.15
2019-06-15T10:14:52.627Z,21.19
2019-06-15T10:15:52.644Z,21.31
2019-06-15T10:16:52.675Z,21.49
2019-06-15T10:17:52.707Z,21.62
2019-06-15T10:18:52.741Z,21.70
2019-06-15T10:19:52.763Z,21.92
2019-06-15T10:20:52.799Z,22.08
2019-06-15T10:21:52.825Z,22.07
2019-06-15T10:22:52.857Z,22.23
2019-06-15T10:23:52.889Z,22.23
2019-06-15T10:24:52.928Z,22.22
2019-06-15T10:25:54.289Z,22.18
2019-06-15T10:26:52.980Z,22.16
2019-06-15T10:27:53.017Z,22.38
2019-06-15T10:28:53.041Z,22.52
2019-06-15T10:29:53.144Z,22.55
2019-06-15T10:30:53.101Z,22.59
2019-06-15T10:31:53.134Z,22.44
2019-06-15T10:32:53.163Z,22.45
2019-06-15T10:33:53.193Z,22.57
2019-06-15T10:34:53.232Z,22.51
2019-06-15T10:35:53.261Z,22.51
2019-06-15T10:36:53.293Z,22.48
2019-06-15T10:37:53.322Z,22.34
2019-06-15T10:38:53.355Z,22.26
2019-06-15T10:39:53.380Z,22.15
2019-06-15T10:40:53.419Z,22.04
2019-06-15T10:41:53.439Z,21.94
2019-06-15T10:42:53.469Z,21.94
2019-06-15T10:43:53.501Z,21.90
2019-06-15T10:44:53.532Z,21.85
2019-06-15T10:45:53.570Z,21.92
2019-06-15T10:46:53.598Z,21.99
2019-06-15T10:47:53.630Z,21.89
2019-06-15T10:48:55.680Z,21.86
2019-06-15T10:49:53.695Z,21.85
2019-06-15T10:50:53.719Z,21.77
2019-06-15T10:51:53.748Z,21.67
2019-06-15T10:52:53.780Z,21.62
2019-06-15T10:53:53.812Z,21.49
2019-06-15T10:54:53.845Z,21.45
2019-06-15T10:55:53.880Z,21.48
2019-06-15T10:57:53.930Z,21.49
2019-06-15T10:58:53.967Z,21.43
2019-06-15T10:59:57.679Z,21.45
2019-06-15T11:00:54.021Z,21.30
2019-06-15T11:01:54.054Z,21.27
2019-06-15T11:02:54.083Z,21.21
2019-06-15T11:03:54.119Z,21.15
2019-06-15T11:04:54.143Z,21.11
2019-06-15T11:05:54.988Z,20.88
2019-06-15T11:06:54.202Z,20.72
2019-06-15T11:07:54.233Z,20.58
2019-06-15T11:08:54.271Z,20.42
2019-06-15T11:09:54.293Z,20.34
2019-06-15T11:10:54.325Z,20.32
2019-06-15T11:11:54.360Z,20.38
2019-06-15T11:12:54.399Z,20.37
2019-06-15T11:13:54.413Z,20.29
2019-06-15T11:14:54.453Z,20.30
2019-06-15T11:15:54.478Z,20.32
2019-06-15T11:16:54.517Z,20.18
2019-06-15T11:17:54.536Z,20.01
2019-06-15T11:18:54.570Z,20.08
2019-06-15T11:19:54.596Z,20.05
2019-06-15T11:20:54.632Z,20.18
2019-06-15T11:21:54.660Z,20.18
2019-06-15T11:22:54.685Z,20.18
2019-06-15T11:23:54.712Z,20.32
2019-06-15T11:24:54.751Z,20.35
2019-06-15T11:25:54.775Z,20.35
2019-06-15T11:26:54.814Z,20.46
2019-06-15T11:27:54.848Z,20.42
2019-06-15T11:28:54.866Z,20.54
2019-06-15T11:29:54.893Z,20.63
2019-06-15T11:30:54.928Z,20.53
2019-06-15T11:31:54.958Z,20.68
2019-06-15T11:32:54.983Z,20.54
2019-06-15T11:33:55.015Z,20.46
2019-06-15T11:34:55.052Z,20.44
2019-06-15T11:35:55.077Z,20.42
2019-06-15T11:36:55.104Z,20.67
2019-06-15T11:37:55.135Z,20.61
2019-06-15T11:38:55.159Z,20.78
2019-06-15T11:39:55.189Z,20.94
2019-06-15T11:40:55.218Z,21.16
2019-06-15T11:41:55.250Z,22.15
2019-06-15T11:42:55.281Z,22.52
2019-06-15T11:43:55.311Z,22.89
2019-06-15T11:44:55.352Z,23.44
2019-06-15T11:45:55.369Z,23.64
2019-06-15T11:46:55.399Z,23.16
2019-06-15T11:47:55.434Z,23.29
2019-06-15T11:48:55.467Z,23.90
2019-06-15T11:49:55.493Z,24.22
2019-06-15T11:50:55.535Z,24.39
2019-06-15T11:51:55.551Z,24.71
2019-06-15T11:52:55.590Z,24.46
2019-06-15T11:53:55.620Z,24.46
2019-06-15T11:54:55.653Z,24.32
2019-06-15T11:55:55.701Z,24.17
2019-06-15T11:56:55.708Z,23.89
2019-06-15T11:57:55.742Z,23.78
2019-06-15T11:58:55.776Z,23.32
2019-06-15T11:59:55.809Z,23.57
2019-06-15T12:00:55.843Z,24.18
2019-06-15T12:01:55.872Z,24.32
2019-06-15T12:02:55.900Z,24.87
2019-06-15T12:03:55.930Z,24.64
2019-06-15T12:04:58.754Z,24.71
2019-06-15T12:05:56.006Z,24.85
2019-06-15T12:06:56.031Z,24.89
2019-06-15T12:07:56.064Z,24.56
2019-06-15T12:08:56.097Z,24.58
2019-06-15T12:09:56.129Z,24.71
2019-06-15T12:10:56.159Z,25.30
2019-06-15T12:11:56.195Z,25.02
2019-06-15T12:12:56.225Z,24.90
2019-06-15T12:13:56.260Z,24.54
2019-06-15T12:14:56.292Z,24.11
2019-06-15T12:15:56.325Z,24.61
2019-06-15T12:16:56.364Z,25.08
2019-06-15T12:17:56.397Z,25.45
2019-06-15T12:18:56.427Z,25.24
2019-06-15T12:19:56.454Z,25.00
2019-06-15T12:20:56.490Z,24.14
2019-06-15T12:21:56.522Z,24.22
2019-06-15T12:22:56.558Z,24.49
2019-06-15T12:23:56.587Z,24.74
2019-06-15T12:24:56.622Z,24.14
2019-06-15T12:25:56.653Z,24.02
2019-06-15T12:26:56.691Z,23.89
2019-06-15T12:27:56.724Z,24.11
2019-06-15T12:28:56.762Z,24.55
2019-06-15T12:29:56.783Z,25.01
2019-06-15T12:30:56.815Z,25.04
2019-06-15T12:31:56.847Z,25.04
2019-06-15T12:32:56.882Z,24.55
2019-06-15T12:33:56.919Z,24.11
2019-06-15T12:34:56.945Z,23.81
2019-06-15T12:35:56.984Z,23.63
2019-06-15T12:36:57.013Z,23.59
2019-06-15T12:37:57.047Z,23.79
2019-06-15T12:38:57.078Z,23.53
2019-06-15T12:39:57.116Z,23.57
2019-06-15T12:40:57.154Z,23.67
2019-06-15T12:41:57.182Z,23.62
2019-06-15T12:42:57.215Z,23.60
2019-06-15T12:43:57.243Z,23.45
2019-06-15T12:44:57.278Z,23.37
2019-06-15T12:45:57.987Z,23.03
2019-06-15T12:46:57.342Z,23.00
2019-06-15T12:47:57.368Z,23.03
2019-06-15T12:48:57.398Z,23.18
2019-06-15T12:49:57.438Z,23.18
2019-06-15T12:50:57.471Z,23.42
2019-06-15T12:51:57.495Z,23.56
2019-06-15T12:52:57.531Z,23.64
2019-06-15T12:53:57.557Z,23.77